Impacts TAF Board
For situational awareness. Not to be used for flight planning purposes.
IDs:

KIAD - Washington/Dulles In, VA, US

Issued at 1120 UTC 10 Aug 2022
Updated at 1436 UTC 10 Aug 2022
Potential Impact None Slight Moderate High
Time1352Z 10/15Z 10/16Z 10/17Z 10/18Z 10/19Z 10/20Z 10/21Z 10/22Z 10/23Z 11/00Z 11/01Z 11/02Z 11/03Z>>
Type OBS PRVL PRVL PRVL PRVL PRVL PRVL PRVL PRVL PRVL PRVL PRVL PRVL PRVL
VIS 10 >6 >6 >6 >6 >6 >6 6 6 6 6 6 >6 >6
CIG -- -- -- -- -- -- -- 45 45 45 45 45 50 50
Cover FEW SCT SCT SCT SCT SCT SCT BKN BKN BKN BKN BKN BKN BKN
FltCat VFR VFR VFR VFR VFR VFR VFR VFR VFR VFR VFR VFR VFR VFR
WX -- -- -- -- -- -- -- -SHRA VCTS -SHRA VCTS -SHRA VCTS -SHRA VCTS -SHRA VCTS -- --
WDir VRB 340 340 340 340 340 340 VRB VRB VRB VRB VRB VRB VRB
WSpd 3 4 4 4 4 4 4 4 4 4 4 4 4 4
WGst -- -- -- -- -- -- -- -- -- -- -- -- -- --
WSHgt -- -- -- -- -- -- -- -- -- -- -- -- -- --
WSDir -- -- -- -- -- -- -- -- -- -- -- -- -- --
WSSpd -- -- -- -- -- -- -- -- -- -- -- -- -- --
Raw TAF
KIAD 101120Z 1012/1118 34004KT P6SM SCT050 SCT100
  FM102100 VRB04KT 6SM -SHRA VCTS BKN045CB BKN130
  FM110200 VRB04KT P6SM BKN050 BKN130
  FM110600 00000KT 3SM BR BKN020 BKN130
  FM111200 30004KT P6SM SCT020 BKN050
  FM111400 32009KT P6SM SCT035


Raw METAR
KIAD 101352Z VRB03KT 10SM FEW030 FEW110 30/23 A3009 RMK AO2 SLP186 T03000233
KIAD 101252Z 00000KT 10SM FEW110 FEW220 28/23 A3008 RMK AO2 SLP182 T02780233
KIAD 101152Z 32004KT 10SM BKN110 26/23 A3008 RMK AO2 SLP182 70006 T02560228 10256 20222 53012

METAR Board
Radar Display
Forecast Discussion
For situational awareness. Not to be used for flight planning purposes.